Time;durP1;ratioP1;P1;durP2;ratioP2;P2;SDS_P1;SDS_P2;PMS_P1;PMS_P2;Temp;Humidity;BMP_temperature;BMP_pressure;BME280_temperature;BME280_humidity;BME280_pressure;Samples;Min_cycle;Max_cycle;Signal;HPM_P1;HPM_P2
2023/07/29 00:00:08;;;;;;;3.15;2.90;;;;;;;20.19;98.48;95575.75;4901373;29;20210;-81
2023/07/29 00:02:34;;;;;;;3.90;3.08;;;;;;;20.18;98.76;95578.59;4911779;29;20213;-80
2023/07/29 00:05:01;;;;;;;4.43;2.78;;;;;;;20.16;98.48;95571.00;4910530;29;20227;-80
2023/07/29 00:07:28;;;;;;;5.15;4.20;;;;;;;20.15;98.20;95566.00;4907106;29;20226;-80
2023/07/29 00:09:54;;;;;;;5.30;3.35;;;;;;;20.07;98.49;95564.56;4901661;29;20203;-80
2023/07/29 00:12:20;;;;;;;3.08;2.88;;;;;;;20.08;98.35;95574.00;4901905;29;20210;-80
2023/07/29 00:14:47;;;;;;;3.30;2.90;;;;;;;20.13;98.06;95562.84;4901220;29;20199;-79
2023/07/29 00:17:14;;;;;;;4.43;3.28;;;;;;;20.14;98.12;95565.22;4899426;29;20210;-80
2023/07/29 00:19:41;;;;;;;3.20;2.90;;;;;;;20.14;97.78;95561.81;4913004;29;20202;-80
2023/07/29 00:22:08;;;;;;;4.15;3.10;;;;;;;19.96;99.23;95581.91;4920100;29;20214;-80
2023/07/29 00:24:34;;;;;;;4.20;2.80;;;;;;;19.98;99.49;95582.47;4905106;29;20305;-80
2023/07/29 00:27:01;;;;;;;3.92;2.60;;;;;;;19.95;98.59;95575.09;4901484;29;20218;-81
2023/07/29 00:29:27;;;;;;;4.85;3.03;;;;;;;19.94;99.51;95580.56;4902013;29;20222;-81
2023/07/29 00:31:54;;;;;;;2.92;2.72;;;;;;;19.96;97.68;95549.75;4901305;29;20198;-81
2023/07/29 00:34:21;;;;;;;3.67;3.10;;;;;;;19.97;98.44;95549.50;4905992;29;20238;-80
2023/07/29 00:36:48;;;;;;;6.30;3.17;;;;;;;20.00;99.67;95563.94;4908576;29;20218;-81
2023/07/29 00:39:14;;;;;;;3.10;2.70;;;;;;;19.96;98.53;95552.34;4901262;29;20240;-80
2023/07/29 00:41:41;;;;;;;5.65;2.70;;;;;;;19.99;97.42;95542.22;4901170;29;20677;-80
2023/07/29 00:44:07;;;;;;;3.10;2.80;;;;;;;20.05;97.78;95550.13;4901295;29;20206;-81
2023/07/29 00:46:35;;;;;;;4.47;2.80;;;;;;;20.06;97.12;95536.84;4900887;29;20233;-80
2023/07/29 00:49:02;;;;;;;3.72;3.20;;;;;;;20.04;97.57;95546.72;4901422;29;20238;-80
2023/07/29 00:51:30;;;;;;;3.13;2.70;;;;;;;20.06;98.06;95546.50;4915093;29;20214;-80
2023/07/29 00:53:56;;;;;;;2.83;2.63;;;;;;;20.03;98.72;95547.75;4906476;29;20211;-81
2023/07/29 00:56:23;;;;;;;3.47;3.10;;;;;;;19.99;99.17;95563.16;4901107;29;20691;-80
2023/07/29 00:58:51;;;;;;;3.00;2.80;;;;;;;19.99;98.79;95557.13;4901421;29;20223;-80
2023/07/29 01:01:18;;;;;;;4.85;2.95;;;;;;;19.98;99.83;95568.59;4901504;29;20213;-80
2023/07/29 01:03:45;;;;;;;4.03;3.03;;;;;;;20.04;99.37;95557.19;4901731;29;20645;-80
2023/07/29 01:06:18;;;;;;;3.10;2.70;;;;;;;19.98;99.52;95560.75;4913715;29;20260;-80
2023/07/29 01:09:00;;;;;;;2.78;2.50;;;;;;;20.02;98.45;95562.66;4921048;29;20227;-80
2023/07/29 01:11:39;;;;;;;4.68;2.63;;;;;;;20.01;98.78;95555.06;4904780;29;20207;-80
2023/07/29 01:14:17;;;;;;;3.10;2.80;;;;;;;20.01;98.77;95548.00;4901150;29;20238;-80
2023/07/29 01:16:50;;;;;;;3.22;2.92;;;;;;;19.96;98.56;95550.53;4891002;29;20195;-81
2023/07/29 01:19:37;;;;;;;3.60;2.58;;;;;;;19.95;98.31;95542.94;4904480;29;20740;-80
2023/07/29 01:22:04;;;;;;;2.85;2.65;;;;;;;19.98;97.86;95529.41;4905445;29;20214;-80
2023/07/29 01:24:31;;;;;;;3.35;3.05;;;;;;;19.98;97.92;95532.00;4914934;29;20207;-80
2023/07/29 01:26:58;;;;;;;3.60;3.03;;;;;;;19.91;97.95;95537.38;4903988;29;20644;-81
2023/07/29 01:29:24;;;;;;;3.60;2.38;;;;;;;19.89;97.45;95530.78;4903900;29;20302;-80
2023/07/29 01:31:56;;;;;;;3.10;2.80;;;;;;;19.86;97.40;95529.44;4903827;29;20226;-80
2023/07/29 01:34:28;;;;;;;3.17;2.83;;;;;;;19.86;97.52;95524.22;4888096;29;20214;-81
2023/07/29 01:36:56;;;;;;;4.28;2.60;;;;;;;19.78;98.04;95521.22;4902946;29;20199;-80
2023/07/29 01:39:25;;;;;;;3.20;2.90;;;;;;;19.79;98.13;95525.41;4912487;29;20229;-81
2023/07/29 01:41:52;;;;;;;2.90;2.70;;;;;;;19.78;97.97;95526.44;4907381;29;20656;-80
2023/07/29 01:44:20;;;;;;;2.60;2.40;;;;;;;19.79;97.56;95522.81;4903062;29;20203;-80
2023/07/29 01:46:46;;;;;;;2.88;2.67;;;;;;;19.78;97.65;95513.38;4904156;29;20258;-79
2023/07/29 01:49:13;;;;;;;3.00;2.70;;;;;;;19.84;96.72;95509.81;4904867;29;20231;-80
2023/07/29 01:51:39;;;;;;;9.63;2.90;;;;;;;19.86;96.73;95512.97;4904067;29;20210;-80
2023/07/29 01:54:05;;;;;;;2.42;2.22;;;;;;;19.88;97.14;95509.09;4901973;29;20207;-81
2023/07/29 01:56:32;;;;;;;2.90;2.20;;;;;;;19.86;97.24;95511.16;4917757;29;20203;-80
2023/07/29 01:59:00;;;;;;;2.50;2.30;;;;;;;19.89;96.90;95504.66;4903622;29;20295;-80
2023/07/29 02:01:26;;;;;;;2.60;2.40;;;;;;;19.75;98.30;95516.44;4902651;29;20281;-80
2023/07/29 02:03:55;;;;;;;2.65;2.45;;;;;;;19.76;97.89;95520.66;4902462;29;20210;-80
2023/07/29 02:06:21;;;;;;;2.80;2.58;;;;;;;19.75;98.37;95519.06;4905149;29;20214;-79
2023/07/29 02:08:48;;;;;;;3.80;2.47;;;;;;;19.70;99.02;95529.41;4901948;29;20230;-80
2023/07/29 02:11:14;;;;;;;3.13;2.50;;;;;;;19.66;99.00;95524.66;4900906;29;20242;-80
2023/07/29 02:13:40;;;;;;;3.08;2.35;;;;;;;19.63;99.30;95527.72;4914110;29;20614;-80
2023/07/29 02:16:08;;;;;;;2.63;2.42;;;;;;;19.62;99.21;95522.78;4901472;29;20439;-80
2023/07/29 02:18:35;;;;;;;2.60;2.40;;;;;;;19.62;99.27;95533.22;4902639;29;20290;-80
2023/07/29 02:21:01;;;;;;;2.70;2.50;;;;;;;19.62;98.82;95523.56;4905437;29;20271;-80
2023/07/29 02:23:27;;;;;;;2.63;2.42;;;;;;;19.58;98.88;95522.44;4905640;29;20226;-81
2023/07/29 02:25:54;;;;;;;2.58;2.33;;;;;;;19.59;98.97;95518.81;4907022;29;20782;-80
2023/07/29 02:28:20;;;;;;;2.85;2.47;;;;;;;19.66;98.40;95516.03;4920193;29;20274;-80
2023/07/29 02:30:49;;;;;;;5.50;2.60;;;;;;;19.68;97.60;95508.75;4919246;29;20199;-80
2023/07/29 02:33:17;;;;;;;3.38;2.35;;;;;;;19.68;97.25;95500.91;4905641;29;20202;-80
2023/07/29 02:35:43;;;;;;;2.50;2.30;;;;;;;19.74;96.81;95507.81;4905087;29;20600;-80
2023/07/29 02:38:10;;;;;;;3.55;2.10;;;;;;;19.72;96.03;95496.81;4900108;29;20230;-80
2023/07/29 02:40:36;;;;;;;2.83;2.03;;;;;;;19.76;95.80;95497.94;4902231;29;20223;-80
2023/07/29 02:43:02;;;;;;;2.40;2.20;;;;;;;19.76;95.24;95484.06;4904590;29;20232;-80
2023/07/29 02:45:29;;;;;;;2.70;2.50;;;;;;;19.76;95.19;95484.06;4917373;29;20233;-80
2023/07/29 02:47:56;;;;;;;3.33;2.22;;;;;;;19.76;95.39;95484.06;4906121;29;20469;-80
2023/07/29 02:50:24;;;;;;;2.72;2.40;;;;;;;19.75;95.10;95482.50;4901590;29;20210;-80
2023/07/29 02:52:50;;;;;;;1.92;1.83;;;;;;;19.78;95.32;95482.03;4901406;29;20214;-80
2023/07/29 02:55:16;;;;;;;2.20;2.00;;;;;;;19.74;95.12;95484.31;4901915;29;20316;-80
2023/07/29 02:57:43;;;;;;;2.47;2.28;;;;;;;19.64;96.43;95495.38;4902415;29;20223;-81
2023/07/29 03:00:11;;;;;;;2.83;2.20;;;;;;;19.66;96.12;95488.09;4912433;29;20214;-79
2023/07/29 03:02:38;;;;;;;2.58;2.38;;;;;;;19.70;95.68;95487.63;4914988;29;20203;-80
2023/07/29 03:05:05;;;;;;;2.63;2.42;;;;;;;19.73;95.84;95490.56;4901970;29;20211;-79
2023/07/29 03:07:32;;;;;;;2.92;2.20;;;;;;;19.70;95.78;95477.19;4901657;29;20229;-80
2023/07/29 03:09:59;;;;;;;2.50;2.30;;;;;;;19.67;94.98;95474.00;4901560;29;20422;-80
2023/07/29 03:12:26;;;;;;;2.50;2.30;;;;;;;19.65;95.91;95480.47;4901715;29;20206;-80
2023/07/29 03:14:52;;;;;;;3.85;1.95;;;;;;;19.59;95.86;95487.47;4900188;29;20206;-79
2023/07/29 03:17:19;;;;;;;2.63;2.42;;;;;;;19.58;95.22;95477.25;4914549;29;20209;-80
2023/07/29 03:19:45;;;;;;;2.10;1.90;;;;;;;19.59;94.84;95471.78;4905230;29;20217;-80
2023/07/29 03:22:12;;;;;;;2.25;2.03;;;;;;;19.59;93.70;95460.53;4900229;29;20203;-79
2023/07/29 03:24:39;;;;;;;5.03;2.42;;;;;;;19.55;93.44;95462.84;4905578;29;20205;-80
2023/07/29 03:27:06;;;;;;;2.15;1.95;;;;;;;19.55;93.71;95449.78;4904114;29;20223;-80
2023/07/29 03:29:33;;;;;;;2.42;2.22;;;;;;;19.55;93.51;95438.53;4903606;29;20203;-80
2023/07/29 03:31:59;;;;;;;2.72;2.25;;;;;;;19.42;93.49;95423.16;4903572;29;20580;-81
2023/07/29 03:34:26;;;;;;;2.47;2.20;;;;;;;19.33;94.29;95435.78;4901436;29;20203;-81
2023/07/29 03:36:52;;;;;;;2.40;2.20;;;;;;;19.37;94.49;95446.56;4899692;29;20191;-81
2023/07/29 03:39:18;;;;;;;2.00;1.90;;;;;;;19.40;94.07;95446.09;4900177;29;20242;-80
2023/07/29 03:41:46;;;;;;;2.33;2.13;;;;;;;19.46;93.77;95447.72;4898962;29;20194;-80
2023/07/29 03:44:13;;;;;;;2.13;1.92;;;;;;;19.49;92.88;95444.66;4899259;29;20666;-80
2023/07/29 03:46:39;;;;;;;2.08;1.80;;;;;;;19.51;92.47;95438.22;4900537;29;20219;-80
2023/07/29 03:49:06;;;;;;;2.60;2.10;;;;;;;19.52;92.87;95446.84;4912558;29;20229;-80
2023/07/29 03:51:32;;;;;;;2.75;2.10;;;;;;;19.51;92.63;95442.63;4902195;29;20199;-79
2023/07/29 03:53:58;;;;;;;3.58;1.98;;;;;;;19.51;91.83;95432.97;4901375;29;20406;-80
2023/07/29 03:56:25;;;;;;;2.33;2.13;;;;;;;19.54;91.75;95434.34;4901068;29;20199;-80
2023/07/29 03:58:53;;;;;;;3.97;2.03;;;;;;;19.53;91.77;95428.31;4901016;29;20223;-80
2023/07/29 04:01:19;;;;;;;3.30;2.20;;;;;;;19.53;91.87;95427.53;4895208;29;20203;-79
2023/07/29 04:03:46;;;;;;;2.70;2.00;;;;;;;19.52;92.24;95429.34;4902867;29;20202;-80
2023/07/29 04:06:13;;;;;;;2.50;2.00;;;;;;;19.43;92.23;95425.53;4916774;29;20308;-80
2023/07/29 04:08:39;;;;;;;2.40;2.15;;;;;;;19.42;92.98;95430.97;4919188;29;20236;-80
2023/07/29 04:11:06;;;;;;;2.97;1.95;;;;;;;19.27;93.93;95429.66;4920741;29;20225;-80
2023/07/29 04:13:32;;;;;;;2.20;2.10;;;;;;;19.24;94.53;95439.81;4919944;29;20217;-79
2023/07/29 04:16:00;;;;;;;5.18;2.05;;;;;;;19.30;94.50;95441.47;4918858;29;20672;-80
2023/07/29 04:18:26;;;;;;;2.10;1.90;;;;;;;19.28;94.87;95433.84;4919853;29;20289;-80
2023/07/29 04:20:53;;;;;;;2.10;1.90;;;;;;;19.29;94.96;95438.06;4915405;29;20297;-80
2023/07/29 04:23:19;;;;;;;5.20;2.00;;;;;;;19.30;95.17;95434.41;4918328;29;20221;-79
2023/07/29 04:25:45;;;;;;;3.35;2.00;;;;;;;19.31;95.04;95430.00;4918936;29;20390;-79
2023/07/29 04:28:12;;;;;;;2.30;2.10;;;;;;;19.30;95.05;95431.00;4918601;29;20226;-80
2023/07/29 04:30:38;;;;;;;2.42;1.90;;;;;;;19.35;94.75;95427.72;4920602;29;20299;-80
2023/07/29 04:33:06;;;;;;;2.22;2.03;;;;;;;19.37;94.59;95430.88;4922181;29;20465;-80
2023/07/29 04:35:32;;;;;;;2.08;1.90;;;;;;;19.38;94.47;95424.63;4910873;29;20198;-80
2023/07/29 04:37:59;;;;;;;2.85;1.85;;;;;;;19.44;94.00;95421.84;4919108;29;20238;-80
2023/07/29 04:40:25;;;;;;;3.10;1.90;;;;;;;19.44;94.26;95423.69;4925436;29;20210;-79
2023/07/29 04:42:52;;;;;;;2.15;1.90;;;;;;;19.47;94.36;95423.22;4925979;29;20206;-80
2023/07/29 04:45:19;;;;;;;4.25;2.20;;;;;;;19.51;93.59;95432.97;4914336;29;20270;-80
2023/07/29 04:47:45;;;;;;;4.80;2.00;;;;;;;19.57;93.56;95424.22;4906899;29;20238;-80
2023/07/29 04:50:13;;;;;;;2.45;2.13;;;;;;;19.62;93.43;95419.09;4905753;29;20225;-80
2023/07/29 04:52:39;;;;;;;3.47;2.22;;;;;;;19.68;92.76;95404.25;4913245;29;20202;-80
2023/07/29 04:55:06;;;;;;;3.08;2.13;;;;;;;19.80;92.40;95402.38;4925064;29;20213;-79
2023/07/29 04:57:33;;;;;;;2.75;1.98;;;;;;;19.89;91.96;95398.31;4905972;29;20241;-80
2023/07/29 04:59:59;;;;;;;3.20;2.10;;;;;;;19.94;91.41;95390.56;4902539;29;20195;-80
2023/07/29 05:02:26;;;;;;;2.53;1.90;;;;;;;19.92;91.36;95381.38;4906637;29;20207;-80
2023/07/29 05:04:52;;;;;;;2.42;1.70;;;;;;;20.00;91.03;95380.97;4898783;29;20271;-80
2023/07/29 05:07:20;;;;;;;2.10;1.80;;;;;;;20.05;90.77;95370.56;4887249;29;20228;-80
2023/07/29 05:09:46;;;;;;;2.13;1.90;;;;;;;20.14;90.37;95373.59;4920809;29;20202;-80
2023/07/29 05:12:13;;;;;;;1.95;1.67;;;;;;;20.22;89.99;95349.63;4924528;29;20206;-80
2023/07/29 05:14:39;;;;;;;2.55;1.70;;;;;;;20.29;89.18;95334.56;4924732;29;20206;-80
2023/07/29 05:17:06;;;;;;;2.00;1.70;;;;;;;20.35;88.80;95330.97;4924123;29;20206;-80
2023/07/29 05:19:33;;;;;;;2.30;1.80;;;;;;;20.38;88.22;95314.03;4924702;29;20249;-81
2023/07/29 05:21:59;;;;;;;1.80;1.70;;;;;;;20.30;88.57;95323.06;4924713;29;20234;-80
2023/07/29 05:24:27;;;;;;;2.25;2.05;;;;;;;20.24;89.16;95316.97;4920956;29;20288;-80
2023/07/29 05:26:53;;;;;;;2.00;1.70;;;;;;;20.25;88.49;95312.53;4923362;29;20603;-80
2023/07/29 05:29:20;;;;;;;1.70;1.60;;;;;;;20.32;88.34;95311.31;4923456;29;20230;-80
2023/07/29 05:31:46;;;;;;;1.63;1.52;;;;;;;20.38;88.25;95314.03;4921361;29;20495;-80
2023/07/29 05:34:12;;;;;;;1.83;1.73;;;;;;;20.44;87.92;95318.28;4909005;29;20211;-80
2023/07/29 05:36:40;;;;;;;1.80;1.70;;;;;;;20.49;88.09;95328.81;4904617;29;20211;-79
2023/07/29 05:39:07;;;;;;;1.73;1.60;;;;;;;20.48;87.49;95312.31;4904456;29;20243;-79
2023/07/29 05:41:34;;;;;;;1.77;1.60;;;;;;;20.54;87.41;95321.03;4917236;29;20206;-79
2023/07/29 05:44:01;;;;;;;1.70;1.60;;;;;;;20.57;87.71;95328.38;4922011;29;20214;-80
2023/07/29 05:46:28;;;;;;;1.63;1.52;;;;;;;20.57;87.23;95323.16;4903759;29;20608;-80
2023/07/29 05:48:54;;;;;;;1.88;1.77;;;;;;;20.62;87.03;95317.94;4903848;29;20301;-80
2023/07/29 05:51:21;;;;;;;1.75;1.65;;;;;;;20.60;86.79;95307.72;4901658;29;20210;-80
2023/07/29 05:53:48;;;;;;;2.88;1.85;;;;;;;20.52;86.11;95304.78;4900487;29;20202;-79
2023/07/29 05:56:14;;;;;;;1.42;1.33;;;;;;;20.45;86.68;95325.88;4887563;29;20782;-81
2023/07/29 05:58:42;;;;;;;1.50;1.40;;;;;;;20.31;88.11;95377.72;4915703;29;20223;-80
2023/07/29 06:01:08;;;;;;;1.67;1.58;;;;;;;20.27;89.56;95410.63;4904531;29;20199;-81
2023/07/29 06:03:35;;;;;;;1.73;1.63;;;;;;;20.22;90.63;95401.91;4904096;29;20203;-80
2023/07/29 06:06:01;;;;;;;1.70;1.60;;;;;;;20.10;91.98;95375.88;4901530;29;20242;-80
2023/07/29 06:08:29;;;;;;;2.35;1.90;;;;;;;20.10;95.45;95422.94;4901169;29;20230;-80
2023/07/29 06:10:55;;;;;;;2.47;1.85;;;;;;;20.05;97.08;95449.00;4901619;29;20210;-80
2023/07/29 06:13:24;;;;;;;2.22;1.83;;;;;;;20.08;97.22;95458.19;4907822;29;20206;-80
2023/07/29 06:15:52;;;;;;;2.55;1.80;;;;;;;20.09;98.02;95457.94;4920829;29;20332;-80
2023/07/29 06:18:19;;;;;;;2.00;1.90;;;;;;;19.96;98.84;95479.97;4921735;29;20222;-81
2023/07/29 06:20:45;;;;;;;2.38;1.92;;;;;;;19.95;98.99;95481.00;4922269;29;20206;-80
2023/07/29 06:23:11;;;;;;;3.45;2.03;;;;;;;20.07;98.52;95485.34;4920954;29;20221;-80
2023/07/29 06:25:38;;;;;;;3.97;1.70;;;;;;;20.10;98.95;95501.34;4921604;29;20209;-80
2023/07/29 06:28:05;;;;;;;4.13;1.65;;;;;;;20.20;98.68;95487.66;4920116;29;20742;-79
2023/07/29 06:30:31;;;;;;;1.88;1.70;;;;;;;20.22;98.78;95498.66;4917515;29;20210;-80
2023/07/29 06:32:59;;;;;;;1.80;1.60;;;;;;;20.24;98.15;95509.66;4909412;29;20203;-80
2023/07/29 06:35:25;;;;;;;2.70;1.85;;;;;;;20.24;97.72;95494.78;4902803;29;20290;-80
2023/07/29 06:37:51;;;;;;;2.03;1.63;;;;;;;20.19;98.29;95504.38;4898730;29;20274;-80
2023/07/29 06:40:18;;;;;;;1.67;1.58;;;;;;;20.24;98.73;95513.06;4900995;29;20211;-80
2023/07/29 06:42:44;;;;;;;2.78;1.80;;;;;;;20.23;99.39;95529.00;4901044;29;20673;-80
2023/07/29 06:45:11;;;;;;;1.77;1.67;;;;;;;20.27;99.21;95530.91;4903631;29;20210;-81
2023/07/29 06:47:38;;;;;;;1.80;1.70;;;;;;;20.16;99.47;95568.38;4918416;29;20262;-79
2023/07/29 06:50:06;;;;;;;1.70;1.60;;;;;;;20.07;100.00;95579.44;4900495;29;20214;-80
2023/07/29 06:52:32;;;;;;;1.73;1.63;;;;;;;20.04;100.00;95604.22;4885629;29;20203;-80
2023/07/29 06:54:59;;;;;;;2.50;1.75;;;;;;;19.88;100.00;95644.19;4882096;29;20211;-80
2023/07/29 06:57:25;;;;;;;4.68;2.17;;;;;;;19.89;100.00;95675.31;4879485;29;20203;-80
2023/07/29 06:59:52;;;;;;;4.45;2.00;;;;;;;19.91;100.00;95690.78;4893489;29;20219;-80
2023/07/29 07:02:18;;;;;;;3.05;1.77;;;;;;;19.93;100.00;95683.50;4909752;29;20680;-80
2023/07/29 07:04:45;;;;;;;3.15;2.00;;;;;;;19.97;100.00;95669.75;4909643;29;20286;-80
2023/07/29 07:07:16;;;;;;;2.60;2.38;;;;;;;19.95;100.00;95671.78;4896860;29;20678;-80
2023/07/29 07:09:42;;;;;;;4.57;2.42;;;;;;;19.99;100.00;95672.13;4896829;29;20206;-80
2023/07/29 07:12:09;;;;;;;4.07;2.83;;;;;;;20.01;100.00;95670.06;4897146;29;20696;-80
2023/07/29 07:14:35;;;;;;;9.77;8.13;;;;;;;20.08;100.00;95664.69;4897969;29;20237;-80
2023/07/29 07:17:02;;;;;;;2.95;2.67;;;;;;;20.11;100.00;95672.06;4898342;29;20282;-80
2023/07/29 07:19:28;;;;;;;2.65;2.45;;;;;;;20.13;100.00;95672.63;4915837;29;20230;-80
2023/07/29 07:21:54;;;;;;;2.60;2.40;;;;;;;20.19;100.00;95680.34;4915537;29;20205;-80
2023/07/29 07:24:23;;;;;;;2.90;2.40;;;;;;;20.21;100.00;95674.84;4915826;29;20217;-80
2023/07/29 07:26:49;;;;;;;2.58;2.38;;;;;;;20.22;100.00;95655.53;4916117;29;20257;-80
2023/07/29 07:29:16;;;;;;;3.22;2.72;;;;;;;20.27;100.00;95659.03;4915635;29;20254;-80
2023/07/29 07:31:51;;;;;;;3.83;2.65;;;;;;;20.29;100.00;95635.25;4914549;29;20628;-79
2023/07/29 07:34:17;;;;;;;4.45;3.38;;;;;;;20.24;100.00;95617.66;4910153;29;20600;-80
2023/07/29 07:36:44;;;;;;;2.95;2.33;;;;;;;20.26;100.00;95602.53;4917046;29;20218;-80
2023/07/29 07:39:10;;;;;;;2.45;2.25;;;;;;;20.27;100.00;95604.13;4915922;29;20230;-79
2023/07/29 07:41:38;;;;;;;3.10;2.42;;;;;;;20.32;100.00;95585.09;4916675;29;20205;-80
2023/07/29 07:44:05;;;;;;;3.10;2.65;;;;;;;20.34;100.00;95573.38;4913855;29;20579;-80
2023/07/29 07:46:32;;;;;;;2.75;2.45;;;;;;;20.36;100.00;95586.22;4897453;29;20195;-79
2023/07/29 07:48:58;;;;;;;2.83;2.60;;;;;;;20.40;100.00;95591.81;4881689;29;20228;-79
2023/07/29 07:51:25;;;;;;;2.60;2.40;;;;;;;20.48;100.00;95592.19;4915469;29;20303;-80
2023/07/29 07:53:51;;;;;;;4.07;2.55;;;;;;;20.50;100.00;95581.50;4916566;29;20214;-79
2023/07/29 07:56:18;;;;;;;3.90;2.45;;;;;;;20.48;100.00;95588.78;4917033;29;20211;-80
2023/07/29 07:58:45;;;;;;;2.50;2.30;;;;;;;20.51;100.00;95594.34;4911424;29;20716;-79
2023/07/29 08:01:12;;;;;;;3.38;3.08;;;;;;;20.51;100.00;95598.78;4897387;29;20238;-80
2023/07/29 08:03:38;;;;;;;3.67;2.47;;;;;;;20.57;100.00;95608.28;4897044;29;20211;-80
2023/07/29 08:06:05;;;;;;;4.47;4.07;;;;;;;20.62;100.00;95609.16;4902891;29;20213;-81
2023/07/29 08:08:31;;;;;;;3.05;2.60;;;;;;;20.70;100.00;95592.28;4915828;29;20241;-81
2023/07/29 08:10:58;;;;;;;2.90;2.42;;;;;;;20.67;100.00;95580.44;4916442;29;20297;-80
2023/07/29 08:13:25;;;;;;;2.90;2.63;;;;;;;20.73;100.00;95570.06;4916751;29;20202;-80
2023/07/29 08:15:54;;;;;;;4.32;2.65;;;;;;;20.79;100.00;95559.41;4921610;29;20845;-80
2023/07/29 08:18:21;;;;;;;4.50;2.50;;;;;;;20.88;100.00;95557.97;4921113;29;20225;-80
2023/07/29 08:20:55;;;;;;;4.05;2.50;;;;;;;20.93;100.00;95559.88;4920519;29;20213;-80
2023/07/29 08:23:22;;;;;;;2.55;2.35;;;;;;;20.90;100.00;95542.03;4917015;29;20290;-80
2023/07/29 08:25:53;;;;;;;3.85;2.40;;;;;;;20.86;100.00;95543.53;4922399;29;20245;-80
2023/07/29 08:28:20;;;;;;;2.95;2.75;;;;;;;20.92;100.00;95553.06;4921750;29;20795;-80
2023/07/29 08:30:46;;;;;;;2.92;2.70;;;;;;;21.13;100.00;95580.31;4907680;29;20226;-80
2023/07/29 08:33:14;;;;;;;2.85;2.55;;;;;;;21.16;100.00;95549.19;4903584;29;20210;-81
2023/07/29 08:35:40;;;;;;;3.35;2.65;;;;;;;21.25;100.00;95539.09;4904095;29;20203;-80
2023/07/29 08:38:07;;;;;;;4.07;3.35;;;;;;;21.22;100.00;95550.06;4906137;29;20234;-80
2023/07/29 08:40:38;;;;;;;3.60;3.28;;;;;;;21.12;100.00;95542.06;4919106;29;20203;-80
2023/07/29 08:43:06;;;;;;;3.90;3.60;;;;;;;21.17;100.00;95526.38;4900829;29;20203;-80
2023/07/29 08:45:35;;;;;;;3.00;2.80;;;;;;;21.28;100.00;95520.28;4897869;29;20203;-81
2023/07/29 08:48:06;;;;;;;2.97;2.67;;;;;;;21.30;100.00;95505.13;4903174;29;20242;-81
2023/07/29 08:50:34;;;;;;;2.65;2.45;;;;;;;21.34;100.00;95504.38;4904167;29;20199;-81
2023/07/29 08:53:01;;;;;;;3.63;2.50;;;;;;;21.36;98.79;95485.78;4903663;29;20210;-81
2023/07/29 08:55:28;;;;;;;2.53;2.30;;;;;;;21.35;99.56;95489.47;4916851;29;20206;-80
2023/07/29 08:57:55;;;;;;;2.70;2.50;;;;;;;21.40;100.00;95515.69;4921376;29;20233;-81
2023/07/29 09:00:22;;;;;;;3.08;2.50;;;;;;;21.47;100.00;95500.56;4902549;29;20252;-80
2023/07/29 09:02:49;;;;;;;2.80;2.60;;;;;;;21.57;98.80;95481.53;4901683;29;20212;-80
2023/07/29 09:05:15;;;;;;;2.60;2.40;;;;;;;21.73;99.28;95492.97;4902512;29;20211;-80
2023/07/29 09:07:45;;;;;;;2.72;2.53;;;;;;;21.83;98.56;95485.97;4901890;29;20231;-80
2023/07/29 09:10:14;;;;;;;2.90;2.70;;;;;;;21.85;96.05;95457.69;4905506;29;20214;-81
2023/07/29 09:12:41;;;;;;;2.70;2.50;;;;;;;22.12;93.93;95428.81;4921238;29;20214;-81
2023/07/29 09:15:08;;;;;;;4.18;2.70;;;;;;;22.27;94.36;95431.53;4920910;29;20209;-80
2023/07/29 09:17:35;;;;;;;2.53;2.33;;;;;;;22.46;91.30;95384.69;4921284;29;20206;-80
2023/07/29 09:20:02;;;;;;;2.80;2.60;;;;;;;22.78;88.93;95350.44;4921074;29;20210;-80
2023/07/29 09:22:29;;;;;;;2.90;2.70;;;;;;;23.06;86.04;95309.81;4921077;29;20329;-80
2023/07/29 09:24:58;;;;;;;3.15;2.83;;;;;;;23.18;84.99;95270.13;4920809;29;20210;-80
2023/07/29 09:27:25;;;;;;;3.20;2.90;;;;;;;23.45;82.21;95233.06;4916784;29;20234;-81
2023/07/29 09:29:51;;;;;;;3.75;2.88;;;;;;;23.71;82.44;95238.03;4912987;29;20263;-79
2023/07/29 09:32:22;;;;;;;2.50;2.30;;;;;;;24.06;78.37;95167.94;4902015;29;20215;-80
2023/07/29 09:34:49;;;;;;;2.88;2.50;;;;;;;23.87;76.65;95117.81;4903178;29;20210;-80
2023/07/29 09:37:21;;;;;;;2.67;2.40;;;;;;;23.77;76.80;95116.03;4900856;29;20218;-79
2023/07/29 09:39:48;;;;;;;2.85;2.40;;;;;;;23.98;75.74;95094.88;4893694;29;20200;-79
2023/07/29 09:42:20;;;;;;;2.80;2.60;;;;;;;23.92;74.74;95075.69;4889687;29;20772;-80
2023/07/29 09:44:47;;;;;;;2.90;2.60;;;;;;;24.27;76.14;95103.66;4913923;29;20227;-80
2023/07/29 09:47:21;;;;;;;2.83;2.60;;;;;;;24.47;72.54;95029.00;4902605;29;20296;-81
2023/07/29 09:49:47;;;;;;;3.80;3.33;;;;;;;24.56;72.56;95014.19;4902790;29;20210;-80
2023/07/29 09:52:15;;;;;;;4.97;4.43;;;;;;;24.78;72.04;95011.09;4903490;29;20266;-79
2023/07/29 09:54:43;;;;;;;2.83;2.63;;;;;;;24.86;69.21;94923.56;4903914;29;20218;-80
2023/07/29 09:57:10;;;;;;;3.05;2.75;;;;;;;24.82;69.84;94943.63;4903438;29;20210;-80
2023/07/29 09:59:37;;;;;;;3.00;2.80;;;;;;;24.84;69.31;94933.59;4911011;29;20241;-79
2023/07/29 10:02:04;;;;;;;2.90;2.70;;;;;;;24.75;70.03;94941.34;4922325;29;20226;-80
2023/07/29 10:04:33;;;;;;;2.67;2.50;;;;;;;24.64;69.51;94928.56;4916770;29;20243;-80
2023/07/29 10:07:01;;;;;;;3.22;2.95;;;;;;;24.65;69.42;94933.53;4901432;29;20207;-81
2023/07/29 10:09:29;;;;;;;3.10;2.80;;;;;;;24.51;69.80;94919.50;4902649;29;20246;-80
2023/07/29 10:11:57;;;;;;;3.10;2.90;;;;;;;24.43;69.25;94906.97;4902109;29;20210;-80
2023/07/29 10:14:24;;;;;;;5.05;3.15;;;;;;;24.37;70.27;94934.38;4902719;29;20203;-79
2023/07/29 10:16:53;;;;;;;3.03;2.53;;;;;;;24.51;69.89;94937.13;4922320;29;20619;-80
2023/07/29 10:19:20;;;;;;;2.83;2.53;;;;;;;24.64;69.15;94918.03;4920980;29;20265;-80
2023/07/29 10:21:50;;;;;;;2.80;2.60;;;;;;;25.09;69.19;94920.13;4921984;29;20219;-80
2023/07/29 10:24:20;;;;;;;2.83;2.63;;;;;;;25.64;69.31;94927.56;4922807;29;20209;-81
2023/07/29 10:26:47;;;;;;;2.58;2.38;;;;;;;25.86;64.73;94768.69;4921888;29;20258;-80
2023/07/29 10:29:19;;;;;;;2.80;2.60;;;;;;;25.89;62.33;94681.06;4918751;29;20230;-80
2023/07/29 10:31:46;;;;;;;2.70;2.50;;;;;;;25.85;62.00;94669.53;4911751;29;20233;-80
2023/07/29 10:34:15;;;;;;;2.72;2.53;;;;;;;25.95;61.84;94672.78;4909152;29;20258;-81
2023/07/29 10:36:42;;;;;;;2.63;2.42;;;;;;;26.14;62.33;94702.47;4886569;29;20605;-80
2023/07/29 10:39:10;;;;;;;2.63;2.42;;;;;;;26.19;61.87;94666.47;4882397;29;20338;-80
2023/07/29 10:41:56;;;;;;;2.60;2.38;;;;;;;26.35;60.67;94636.06;4883812;29;20212;-81
2023/07/29 10:44:52;;;;;;;2.63;2.42;;;;;;;26.52;59.65;94596.59;4886264;29;20210;-79
2023/07/29 10:47:22;;;;;;;2.70;2.50;;;;;;;26.53;60.49;94613.22;4907143;29;20680;-80
2023/07/29 10:49:52;;;;;;;3.38;2.53;;;;;;;26.49;59.48;94599.81;4920515;29;20206;-79
2023/07/29 10:52:30;;;;;;;2.90;2.67;;;;;;;26.33;59.73;94609.19;4920733;29;20214;-80
2023/07/29 10:54:58;;;;;;;2.80;2.60;;;;;;;26.39;60.37;94616.66;4921833;29;20202;-80
2023/07/29 10:57:32;;;;;;;3.03;2.72;;;;;;;26.13;61.52;94658.66;4920568;29;20225;-80
2023/07/29 10:59:58;;;;;;;3.28;2.97;;;;;;;25.81;61.93;94664.84;4906895;29;20231;-80
2023/07/29 11:02:30;;;;;;;3.42;2.83;;;;;;;25.79;63.50;94737.44;4901256;29;20773;-80
2023/07/29 11:04:58;;;;;;;3.10;2.80;;;;;;;26.07;62.11;94694.16;4916449;29;20202;-80
2023/07/29 11:07:29;;;;;;;3.15;2.70;;;;;;;26.15;61.83;94685.53;4920757;29;20210;-80
2023/07/29 11:10:04;;;;;;;3.00;2.80;;;;;;;26.03;62.01;94674.69;4920695;29;20217;-80
2023/07/29 11:12:37;;;;;;;2.95;2.75;;;;;;;25.86;62.87;94748.38;4920101;29;20222;-80
2023/07/29 11:15:12;;;;;;;3.80;2.70;;;;;;;25.69;61.50;94716.53;4918864;29;20213;-80
2023/07/29 11:17:40;;;;;;;2.50;2.30;;;;;;;25.51;59.06;94594.25;4919687;29;20210;-80
2023/07/29 11:20:10;;;;;;;2.72;2.28;;;;;;;25.40;58.99;94563.91;4916382;29;20229;-79
2023/07/29 11:22:37;;;;;;;4.20;1.90;;;;;;;25.30;58.80;94564.09;4919622;29;20202;-80
2023/07/29 11:25:04;;;;;;;2.13;2.00;;;;;;;24.97;59.17;94564.19;4920977;29;20210;-80
2023/07/29 11:27:31;;;;;;;1.70;1.60;;;;;;;24.87;59.59;94608.31;4911598;29;20625;-80
2023/07/29 11:29:58;;;;;;;2.20;2.10;;;;;;;24.67;60.38;94623.38;4901482;29;20233;-81
2023/07/29 11:32:25;;;;;;;2.00;1.80;;;;;;;24.77;60.21;94602.19;4896595;29;20208;-79